Lake Stevens, WA (98258)

6:04 PM PST on February 22, 2017 (GMT -0800)
Green View Ridge | | Change Station

Elev 276 ft 47.97 °N, 122.07 °W | Updated 5 minutes ago

Partly Cloudy
Partly Cloudy
37.9 °F
Feels Like 38 °F
N
0.0
Wind Variable Wind from NW
Gusts 0.0 mph

Today
High -- | Low -- °F
--% Chance of Precip.
Yesterday
High -- | Low -- °F
Precip. -- in
Pressure 30.21 in
Visibility 10.0 miles
Clouds Few 3100 ft
Few 3600 ft
Mostly Cloudy 5000 ft
Windchill 38 °F
Dew Point 34 °F
Humidity 87%
Rainfall 0.13 in
Snow Depth Not available.
7:01 AM 5:42 PM
Waning Crescent, 13% visible
METAR KAWO 230155Z AUTO 00000KT 10SM FEW031 FEW036 BKN050 03/M03 A3021 RMK AO1
Pressure 30.21 in
Visibility 10.0 miles
Clouds Few 3100 ft
Few 3600 ft
Mostly Cloudy 5000 ft
Windchill 38 °F
Dew Point 34 °F
Humidity 87%
Rainfall 0.13 in
Snow Depth Not available.
7:01 AM 5:42 PM
Waning Crescent, 13% visible
METAR KAWO 230155Z AUTO 00000KT 10SM FEW031 FEW036 BKN050 03/M03 A3021 RMK AO1

Get Your Daily Forecast Email!

Thanks for signing up!

Be on the lookout for a verification email in your inbox.

You'll start receiving the daily forecast at 8 AM.

×

10-Day Weather Forecast

Almanac

Astronomy

Feb. 22, 2017 Rise Set
Actual Time
Civil Twilight
Nautical Twilight
Astronomical Twilight
Moon
Length of Visible Light
Length of Day
Tomorrow will be .
, % of the Moon is Illuminated

Today's Extremes

State Highs State Lows

Community

WunderPhotos

Upload Photos

1,962,540 photos uploaded!

WunderBlog® & News

Nearby

Air Quality

  Air Quality AQ Index Pollutant
Not available.

Snow Depth

Station Depth Elevation

Earthquake Activity

City Distance Mag. Time & Date
Minimum magnitude displayed is 2.5.

Coastal Water Temperatures

Place Temperature

Stations

Nearby Weather Stations

Station Location Temp. Windchill Dew Point Humidity Wind Precip. Elev Updated Type
                   

Watches & Warnings

There are currently no watches in effect.